CheckWX is a tool to help pilots better visualize weather data.  It is not intended as a substitute for an official pre-flight weather briefing.

10:20:27 UTC

CWLI METAR
Liverpool Bay Airport
Canada
Current

1 hour ago

CWLI 180900Z AUTO 21010KT ////SM //// BKN300 M30/M33 A2994
Observed
Feb-18 @ 09:00 UTC
Wind
  • 210° at 10 KTS
Visibility
Cloud Levels
  • Broken at 30,000' AGL
Temperature
-30°C / -22°F
Dewpoint
-33°C / -27°F
Humidity
75%
Altimeter
29.94" Hg
Pressure
1013.92 hPa
Previous

2 hours ago

CWLI 180800Z AUTO 23008KT ////SM //// NCD M30/M32 A2994
Observed
Feb-18 @ 08:00 UTC
Wind
  • 230° at 8 KTS
Visibility
Cloud Levels
  • Clear skies
Temperature
-30°C / -22°F
Dewpoint
-32°C / -26°F
Humidity
83%
Altimeter
29.94" Hg
Pressure
1013.92 hPa
Previous

3 hours ago

CWLI 180700Z AUTO 23009KT ////SM //// NCD M30/M33 A2995
Observed
Feb-18 @ 07:00 UTC
Wind
  • 230° at 9 KTS
Visibility
Cloud Levels
  • Clear skies
Temperature
-30°C / -22°F
Dewpoint
-33°C / -27°F
Humidity
75%
Altimeter
29.95" Hg
Pressure
1014.22 hPa